createdAt,value
2022-11-06T00:01:06.735Z,4.72
2022-11-06T00:03:33.959Z,4.69
2022-11-06T00:06:19.458Z,4.74
2022-11-06T00:08:46.129Z,4.81
2022-11-06T00:11:16.153Z,5.04
2022-11-06T00:13:43.305Z,5.02
2022-11-06T00:16:12.014Z,4.88
2022-11-06T00:18:39.703Z,4.58
2022-11-06T00:21:16.725Z,4.90
2022-11-06T00:23:45.089Z,4.76
2022-11-06T00:26:14.254Z,4.93
2022-11-06T00:28:41.197Z,4.78
2022-11-06T00:31:12.064Z,4.96
2022-11-06T00:33:39.212Z,4.98
2022-11-06T00:36:08.411Z,4.83
2022-11-06T00:38:35.095Z,4.91
2022-11-06T00:41:04.654Z,4.77
2022-11-06T00:43:33.016Z,4.91
2022-11-06T00:46:08.259Z,5.27
2022-11-06T00:48:36.125Z,5.15
2022-11-06T00:51:04.532Z,5.20
2022-11-06T00:53:31.262Z,5.23
2022-11-06T00:56:05.393Z,4.89
2022-11-06T00:58:32.059Z,4.09
2022-11-06T01:01:09.762Z,4.36
2022-11-06T01:03:37.441Z,4.81
2022-11-06T01:06:10.199Z,4.50
2022-11-06T01:08:37.029Z,5.08
2022-11-06T01:11:22.929Z,5.27
2022-11-06T01:13:53.529Z,5.40
2022-11-06T01:16:21.710Z,5.26
2022-11-06T01:18:48.854Z,5.29
2022-11-06T01:21:19.596Z,5.35
2022-11-06T01:23:47.102Z,5.31
2022-11-06T01:26:18.685Z,5.09
2022-11-06T01:29:02.277Z,4.77
2022-11-06T01:31:32.875Z,4.54
2022-11-06T01:34:01.238Z,4.97
2022-11-06T01:36:28.503Z,5.16
2022-11-06T01:38:57.454Z,5.26
2022-11-06T01:41:30.957Z,5.12
2022-11-06T01:44:33.423Z,4.82
2022-11-06T01:47:03.695Z,4.76
2022-11-06T01:49:35.074Z,4.50
2022-11-06T01:52:08.501Z,4.57
2022-11-06T01:54:37.721Z,4.18
2022-11-06T01:57:05.385Z,4.13
2022-11-06T01:59:36.053Z,4.28
2022-11-06T02:02:03.258Z,4.60
2022-11-06T02:04:36.190Z,4.76
2022-11-06T02:07:02.827Z,4.61
2022-11-06T02:09:31.951Z,4.50
2022-11-06T02:12:21.933Z,3.77
2022-11-06T02:14:54.453Z,3.96
2022-11-06T02:17:52.109Z,4.36
2022-11-06T02:20:40.233Z,4.32
2022-11-06T02:23:30.174Z,4.39
2022-11-06T02:26:32.351Z,4.53
2022-11-06T02:29:11.411Z,4.39
2022-11-06T02:31:41.703Z,4.40
2022-11-06T02:34:16.528Z,4.67
2022-11-06T02:36:55.160Z,4.59
2022-11-06T02:39:27.229Z,4.53
2022-11-06T02:41:56.786Z,4.58
2022-11-06T02:44:27.732Z,4.23
2022-11-06T02:46:58.392Z,3.93
2022-11-06T02:49:32.356Z,4.30
2022-11-06T02:52:04.275Z,4.46
2022-11-06T02:54:34.481Z,4.42
2022-11-06T02:57:07.194Z,4.37
2022-11-06T02:59:39.950Z,4.46
2022-11-06T03:02:11.794Z,4.29
2022-11-06T03:04:54.140Z,4.09
2022-11-06T03:07:32.639Z,4.26
2022-11-06T03:09:59.452Z,4.14
2022-11-06T03:12:32.537Z,4.24
2022-11-06T03:15:11.461Z,3.78
2022-11-06T03:17:43.965Z,3.57
2022-11-06T03:20:17.329Z,3.63
2022-11-06T03:22:57.262Z,3.79
2022-11-06T03:25:35.509Z,3.82
2022-11-06T03:28:06.321Z,4.26
2022-11-06T03:30:38.288Z,4.38
2022-11-06T03:33:19.394Z,4.48
2022-11-06T03:36:00.419Z,4.32
2022-11-06T03:38:30.899Z,4.21
2022-11-06T03:41:07.916Z,3.88
2022-11-06T03:43:42.223Z,3.93
2022-11-06T03:46:15.675Z,3.64
2022-11-06T03:48:54.133Z,3.56
2022-11-06T03:51:32.369Z,3.54
2022-11-06T03:54:06.471Z,3.52
2022-11-06T03:56:41.371Z,3.66
2022-11-06T03:59:09.462Z,3.56
2022-11-06T04:01:43.149Z,3.08
2022-11-06T04:04:21.912Z,2.86
2022-11-06T04:07:12.388Z,3.03
2022-11-06T04:10:01.375Z,2.93
2022-11-06T04:12:46.319Z,2.59
2022-11-06T04:15:18.459Z,2.82
2022-11-06T04:17:45.220Z,2.87
2022-11-06T04:20:42.494Z,3.01
2022-11-06T04:23:38.042Z,3.21
2022-11-06T04:26:41.895Z,2.56
2022-11-06T04:29:27.053Z,2.92
2022-11-06T04:32:17.802Z,3.06
2022-11-06T04:35:22.496Z,3.31
2022-11-06T04:37:55.088Z,3.80
2022-11-06T04:40:33.104Z,3.93
2022-11-06T04:43:05.909Z,3.87
2022-11-06T04:45:40.129Z,3.94
2022-11-06T04:48:08.804Z,3.92
2022-11-06T04:50:42.274Z,3.85
2022-11-06T04:53:10.618Z,3.17
2022-11-06T04:55:53.333Z,3.31
2022-11-06T04:58:20.206Z,3.54
2022-11-06T05:00:48.142Z,3.72
2022-11-06T05:03:16.072Z,3.73
2022-11-06T05:05:43.144Z,3.81
2022-11-06T05:08:20.904Z,3.63
2022-11-06T05:10:48.830Z,3.75
2022-11-06T05:13:15.977Z,3.76
2022-11-06T05:15:42.697Z,3.51
2022-11-06T05:18:09.858Z,3.68
2022-11-06T05:20:36.602Z,3.65
2022-11-06T05:23:03.610Z,3.67
2022-11-06T05:25:35.711Z,3.42
2022-11-06T05:28:06.651Z,3.44
2022-11-06T05:30:37.584Z,3.29
2022-11-06T05:33:04.482Z,3.59
2022-11-06T05:35:31.021Z,3.49
2022-11-06T05:38:02.128Z,3.40
2022-11-06T05:40:29.533Z,3.46
2022-11-06T05:42:56.168Z,3.50
2022-11-06T05:45:22.795Z,3.10
2022-11-06T05:47:49.439Z,3.41
2022-11-06T05:50:16.031Z,3.66
2022-11-06T05:52:42.627Z,4.14
2022-11-06T05:55:14.368Z,4.08
2022-11-06T05:57:42.484Z,3.88
2022-11-06T06:00:11.454Z,4.03
2022-11-06T06:02:43.214Z,4.06
2022-11-06T06:05:10.565Z,3.97
2022-11-06T06:07:37.276Z,3.69
2022-11-06T06:10:04.403Z,3.60
2022-11-06T06:12:31.139Z,3.50
2022-11-06T06:14:57.809Z,3.04
2022-11-06T06:17:24.920Z,3.18
2022-11-06T06:19:52.047Z,3.21
2022-11-06T06:22:19.367Z,3.38
2022-11-06T06:24:46.195Z,3.68
2022-11-06T06:27:12.902Z,3.71
2022-11-06T06:29:39.663Z,3.51
2022-11-06T06:32:06.695Z,3.46
2022-11-06T06:34:33.347Z,3.58
2022-11-06T06:36:59.991Z,3.48
2022-11-06T06:39:26.569Z,3.28
2022-11-06T06:41:53.155Z,3.22
2022-11-06T06:44:19.754Z,3.46
2022-11-06T06:46:46.413Z,3.36
2022-11-06T06:49:13.101Z,3.45
2022-11-06T06:51:39.672Z,3.42
2022-11-06T06:54:06.378Z,3.32
2022-11-06T06:56:33.107Z,3.42
2022-11-06T06:58:59.672Z,3.53
2022-11-06T07:01:26.763Z,3.71
2022-11-06T07:03:53.399Z,3.72
2022-11-06T07:06:20.712Z,3.80
2022-11-06T07:08:47.603Z,3.92
2022-11-06T07:11:14.539Z,3.95
2022-11-06T07:13:41.170Z,4.47
2022-11-06T07:16:10.560Z,4.02
2022-11-06T07:18:38.936Z,3.22
2022-11-06T07:21:07.862Z,3.54
2022-11-06T07:23:35.764Z,3.59
2022-11-06T07:26:03.461Z,3.86
2022-11-06T07:28:30.136Z,3.59
2022-11-06T07:31:01.529Z,3.41
2022-11-06T07:33:28.649Z,3.53
2022-11-06T07:35:55.371Z,3.69
2022-11-06T07:38:22.187Z,3.71
2022-11-06T07:40:48.761Z,3.78
2022-11-06T07:43:16.709Z,3.93
2022-11-06T07:45:43.418Z,3.85
2022-11-06T07:48:10.180Z,3.82
2022-11-06T07:50:36.794Z,4.03
2022-11-06T07:53:04.314Z,4.70
2022-11-06T07:55:31.141Z,4.30
2022-11-06T07:57:59.659Z,4.77
2022-11-06T08:00:26.520Z,5.21
2022-11-06T08:02:53.384Z,4.80
2022-11-06T08:05:20.821Z,5.11
2022-11-06T08:07:47.451Z,4.81
2022-11-06T08:10:14.351Z,4.49
2022-11-06T08:12:40.955Z,4.13
2022-11-06T08:15:07.995Z,5.04
2022-11-06T08:17:34.676Z,5.41
2022-11-06T08:20:01.369Z,5.70
2022-11-06T08:22:27.982Z,5.88
2022-11-06T08:24:54.572Z,5.36
2022-11-06T08:27:21.206Z,5.45
2022-11-06T08:29:47.817Z,5.39
2022-11-06T08:32:14.390Z,6.13
2022-11-06T08:34:42.285Z,6.01
2022-11-06T08:37:10.508Z,5.97
2022-11-06T08:39:37.328Z,6.21
2022-11-06T08:42:05.405Z,6.45
2022-11-06T08:44:32.041Z,6.07
2022-11-06T08:46:58.735Z,5.76
2022-11-06T08:49:25.732Z,5.92
2022-11-06T08:51:53.897Z,6.04
2022-11-06T08:54:20.708Z,5.92
2022-11-06T08:56:47.309Z,5.98
2022-11-06T08:59:13.883Z,6.23
2022-11-06T09:01:40.517Z,6.51
2022-11-06T09:04:08.014Z,6.35
2022-11-06T09:06:34.679Z,6.51
2022-11-06T09:09:01.361Z,6.55
2022-11-06T09:11:28.090Z,6.85
2022-11-06T09:13:54.601Z,6.88
2022-11-06T09:16:21.362Z,6.71
2022-11-06T09:18:47.870Z,7.23
2022-11-06T09:21:14.542Z,7.16
2022-11-06T09:23:41.098Z,7.32
2022-11-06T09:26:07.784Z,7.11
2022-11-06T09:28:34.322Z,6.94
2022-11-06T09:31:02.449Z,7.28
2022-11-06T09:33:29.252Z,7.48
2022-11-06T09:35:58.117Z,7.56
2022-11-06T09:38:24.854Z,7.65
2022-11-06T09:40:55.149Z,7.98
2022-11-06T09:44:04.758Z,8.76
2022-11-06T09:46:38.319Z,8.77
2022-11-06T09:49:13.896Z,8.71
2022-11-06T09:51:50.845Z,8.93
2022-11-06T09:54:20.887Z,8.63
2022-11-06T09:56:50.947Z,8.50
2022-11-06T09:59:20.671Z,9.15
2022-11-06T10:01:52.740Z,9.65
2022-11-06T10:04:49.631Z,9.13
2022-11-06T10:07:26.797Z,9.64
2022-11-06T10:09:53.844Z,9.18
2022-11-06T10:12:34.401Z,9.48
2022-11-06T10:15:38.941Z,9.84
2022-11-06T10:18:08.120Z,9.50
2022-11-06T10:20:46.455Z,9.45
2022-11-06T10:23:24.035Z,10.00
2022-11-06T10:26:09.380Z,9.81
2022-11-06T10:28:54.922Z,8.80
2022-11-06T10:31:38.333Z,8.72
2022-11-06T10:34:22.582Z,9.14
2022-11-06T10:36:53.038Z,9.53
2022-11-06T10:39:27.194Z,9.74
2022-11-06T10:42:03.704Z,9.52
2022-11-06T10:44:48.571Z,9.68
2022-11-06T10:47:21.432Z,9.66
2022-11-06T10:50:00.425Z,9.80
2022-11-06T10:52:44.638Z,10.15
2022-11-06T10:55:26.793Z,10.07
2022-11-06T10:58:18.287Z,10.04
2022-11-06T11:00:45.448Z,10.17
2022-11-06T11:03:28.663Z,10.24
2022-11-06T11:05:55.777Z,9.90
2022-11-06T11:08:42.326Z,10.41
2022-11-06T11:11:15.642Z,10.48
2022-11-06T11:13:46.327Z,10.25
2022-11-06T11:16:39.764Z,10.69
2022-11-06T11:19:34.235Z,11.22
2022-11-06T11:22:17.515Z,10.64
2022-11-06T11:25:03.816Z,10.74
2022-11-06T11:27:52.085Z,11.42
2022-11-06T11:30:26.392Z,11.29
2022-11-06T11:32:54.270Z,11.63
2022-11-06T11:35:29.421Z,11.39
2022-11-06T11:38:26.130Z,12.15
2022-11-06T11:41:06.952Z,11.80
2022-11-06T11:43:33.686Z,12.46
2022-11-06T11:46:26.867Z,12.55
2022-11-06T11:48:56.006Z,12.70
2022-11-06T11:51:27.910Z,12.56
2022-11-06T11:54:21.856Z,12.97
2022-11-06T11:57:09.034Z,13.34
2022-11-06T11:59:44.002Z,13.76
2022-11-06T12:02:26.996Z,13.42
2022-11-06T12:05:01.369Z,12.92
2022-11-06T12:07:33.843Z,13.55
2022-11-06T12:10:01.356Z,14.92
2022-11-06T12:12:32.090Z,15.46
2022-11-06T12:15:19.926Z,15.93
2022-11-06T12:17:56.885Z,15.91
2022-11-06T12:20:35.401Z,15.33
2022-11-06T12:23:03.133Z,15.62
2022-11-06T12:25:36.325Z,15.92
2022-11-06T12:28:10.963Z,15.81
2022-11-06T12:30:42.259Z,15.65
2022-11-06T12:33:19.457Z,15.05
2022-11-06T12:35:55.779Z,14.77
2022-11-06T12:39:07.048Z,14.59
2022-11-06T12:41:44.142Z,14.61
2022-11-06T12:44:13.432Z,14.49
2022-11-06T12:46:50.872Z,14.47
2022-11-06T12:49:39.340Z,14.09
2022-11-06T12:52:44.668Z,13.86
2022-11-06T12:55:26.394Z,13.85
2022-11-06T12:58:10.610Z,14.00
2022-11-06T13:01:17.147Z,13.92
2022-11-06T13:03:52.928Z,13.79
2022-11-06T13:06:36.585Z,13.82
2022-11-06T13:09:22.065Z,13.76
2022-11-06T13:11:56.891Z,13.58
2022-11-06T13:15:00.164Z,13.75
2022-11-06T13:17:44.249Z,13.16
2022-11-06T13:20:16.725Z,13.05
2022-11-06T13:22:49.477Z,12.53
2022-11-06T13:25:39.529Z,12.46
2022-11-06T13:28:50.051Z,12.28
2022-11-06T13:31:20.856Z,12.58
2022-11-06T13:33:51.188Z,12.23
2022-11-06T13:36:19.104Z,12.26
2022-11-06T13:39:25.135Z,12.10
2022-11-06T13:41:54.224Z,11.93
2022-11-06T13:44:22.684Z,11.92
2022-11-06T13:46:49.760Z,12.02
2022-11-06T13:49:28.450Z,12.20
2022-11-06T13:51:58.731Z,12.25
2022-11-06T13:54:34.572Z,12.16
2022-11-06T13:57:19.998Z,11.92
2022-11-06T14:00:23.936Z,12.28
2022-11-06T14:03:08.803Z,12.75
2022-11-06T14:05:52.407Z,12.62
2022-11-06T14:09:04.647Z,12.43
2022-11-06T14:11:35.170Z,12.84
2022-11-06T14:14:06.167Z,12.86
2022-11-06T14:16:41.702Z,12.59
2022-11-06T14:19:23.558Z,12.59
2022-11-06T14:22:13.338Z,12.88
2022-11-06T14:24:41.688Z,12.90
2022-11-06T14:27:23.696Z,12.85
2022-11-06T14:30:00.651Z,13.07
2022-11-06T14:32:30.286Z,12.88
2022-11-06T14:34:58.115Z,12.79
2022-11-06T14:37:31.166Z,12.63
2022-11-06T14:39:57.978Z,12.35
2022-11-06T14:42:27.255Z,12.34
2022-11-06T14:44:57.054Z,12.23
2022-11-06T14:47:35.061Z,12.21
2022-11-06T14:50:25.685Z,12.09
2022-11-06T14:53:01.036Z,12.23
2022-11-06T14:55:43.568Z,11.95
2022-11-06T14:58:18.912Z,11.87
2022-11-06T15:01:12.620Z,11.90
2022-11-06T15:03:54.271Z,12.10
2022-11-06T15:06:50.912Z,12.04
2022-11-06T15:09:23.728Z,11.62
2022-11-06T15:11:53.011Z,11.49
2022-11-06T15:14:19.558Z,11.49
2022-11-06T15:16:56.336Z,11.38
2022-11-06T15:19:27.173Z,11.31
2022-11-06T15:22:26.382Z,11.13
2022-11-06T15:25:03.104Z,11.02
2022-11-06T15:27:42.981Z,10.86
2022-11-06T15:30:17.352Z,10.72
2022-11-06T15:32:46.506Z,10.75
2022-11-06T15:35:17.834Z,10.66
2022-11-06T15:37:54.044Z,10.59
2022-11-06T15:40:33.446Z,10.38
2022-11-06T15:43:07.922Z,10.41
2022-11-06T15:45:34.910Z,10.33
2022-11-06T15:48:04.911Z,10.26
2022-11-06T15:50:33.259Z,10.12
2022-11-06T15:53:23.913Z,9.90
2022-11-06T15:55:56.212Z,9.85
2022-11-06T15:58:31.089Z,9.66
2022-11-06T16:01:04.024Z,9.73
2022-11-06T16:03:33.331Z,9.65
2022-11-06T16:06:03.967Z,9.55
2022-11-06T16:08:32.454Z,9.58
2022-11-06T16:11:01.553Z,9.34
2022-11-06T16:13:28.626Z,9.07
2022-11-06T16:15:58.954Z,8.99
2022-11-06T16:18:44.859Z,8.95
2022-11-06T16:21:16.498Z,8.86
2022-11-06T16:23:45.925Z,9.03
2022-11-06T16:26:37.240Z,9.13
2022-11-06T16:29:12.564Z,9.24
2022-11-06T16:31:40.430Z,9.06
2022-11-06T16:34:20.752Z,8.90
2022-11-06T16:37:08.097Z,8.63
2022-11-06T16:39:49.871Z,8.38
2022-11-06T16:42:24.996Z,8.31
2022-11-06T16:45:00.451Z,7.96
2022-11-06T16:47:27.275Z,7.29
2022-11-06T16:49:55.120Z,7.39
2022-11-06T16:52:39.135Z,7.34
2022-11-06T16:55:25.324Z,7.37
2022-11-06T16:58:00.937Z,7.37
2022-11-06T17:00:31.074Z,7.14
2022-11-06T17:03:05.946Z,7.21
2022-11-06T17:05:37.985Z,7.16
2022-11-06T17:08:09.019Z,6.91
2022-11-06T17:10:40.963Z,6.73
2022-11-06T17:13:14.452Z,6.63
2022-11-06T17:15:43.319Z,6.68
2022-11-06T17:18:21.660Z,6.66
2022-11-06T17:20:54.244Z,6.88
2022-11-06T17:23:21.744Z,7.07
2022-11-06T17:25:50.523Z,7.13
2022-11-06T17:28:18.890Z,7.23
2022-11-06T17:30:47.738Z,7.26
2022-11-06T17:33:15.583Z,7.15
2022-11-06T17:35:43.202Z,7.06
2022-11-06T17:38:14.659Z,6.90
2022-11-06T17:40:42.912Z,6.67
2022-11-06T17:43:10.250Z,6.55
2022-11-06T17:45:42.243Z,6.59
2022-11-06T17:48:08.958Z,6.67
2022-11-06T17:50:55.989Z,6.49
2022-11-06T17:53:22.684Z,6.49
2022-11-06T17:55:49.239Z,6.49
2022-11-06T17:58:16.208Z,6.44
2022-11-06T18:00:43.350Z,6.58
2022-11-06T18:03:17.681Z,6.64
2022-11-06T18:05:44.725Z,6.44
2022-11-06T18:08:13.339Z,6.30
2022-11-06T18:10:40.288Z,6.17
2022-11-06T18:13:07.300Z,6.21
2022-11-06T18:15:36.254Z,6.27
2022-11-06T18:18:04.013Z,6.28
2022-11-06T18:20:30.650Z,6.30
2022-11-06T18:22:57.256Z,6.28
2022-11-06T18:25:23.901Z,6.03
2022-11-06T18:27:50.617Z,6.13
2022-11-06T18:30:17.259Z,6.15
2022-11-06T18:32:43.820Z,6.24
2022-11-06T18:35:10.455Z,6.38
2022-11-06T18:37:37.112Z,6.56
2022-11-06T18:40:04.140Z,6.67
2022-11-06T18:42:31.077Z,6.61
2022-11-06T18:44:57.714Z,6.54
2022-11-06T18:47:24.291Z,6.60
2022-11-06T18:49:50.884Z,6.40
2022-11-06T18:52:37.904Z,6.54
2022-11-06T18:55:04.528Z,6.42
2022-11-06T18:57:31.350Z,6.56
2022-11-06T18:59:58.057Z,6.53
2022-11-06T19:02:25.105Z,6.47
2022-11-06T19:04:52.041Z,6.46
2022-11-06T19:07:19.907Z,6.30
2022-11-06T19:09:46.528Z,5.76
2022-11-06T19:12:13.334Z,6.03
2022-11-06T19:14:40.311Z,5.93
2022-11-06T19:17:07.127Z,5.76
2022-11-06T19:19:33.994Z,5.83
2022-11-06T19:22:01.402Z,5.93
2022-11-06T19:24:28.104Z,5.72
2022-11-06T19:26:55.552Z,5.64
2022-11-06T19:29:22.275Z,5.66
2022-11-06T19:31:48.845Z,4.78
2022-11-06T19:34:15.726Z,4.18
2022-11-06T19:36:42.386Z,4.51
2022-11-06T19:39:09.141Z,4.65
2022-11-06T19:41:35.921Z,4.64
2022-11-06T19:44:02.479Z,4.76
2022-11-06T19:46:35.176Z,4.81
2022-11-06T19:49:07.428Z,4.78
2022-11-06T19:51:34.742Z,4.67
2022-11-06T19:54:01.664Z,4.79
2022-11-06T19:56:28.254Z,4.84
2022-11-06T19:58:54.894Z,4.89
2022-11-06T20:01:21.805Z,4.59
2022-11-06T20:03:48.601Z,4.44
2022-11-06T20:06:15.780Z,4.53
2022-11-06T20:08:42.747Z,4.39
2022-11-06T20:11:13.338Z,4.45
2022-11-06T20:13:44.551Z,4.61
2022-11-06T20:16:19.997Z,4.72
2022-11-06T20:18:58.039Z,4.79
2022-11-06T20:21:28.106Z,5.06
2022-11-06T20:23:55.971Z,5.08
2022-11-06T20:26:23.159Z,5.18
2022-11-06T20:28:50.289Z,5.15
2022-11-06T20:31:21.574Z,5.31
2022-11-06T20:33:49.362Z,5.39
2022-11-06T20:36:17.552Z,5.45
2022-11-06T20:38:44.924Z,5.38
2022-11-06T20:41:13.204Z,5.23
2022-11-06T20:43:40.559Z,5.29
2022-11-06T20:46:08.099Z,5.10
2022-11-06T20:48:35.243Z,4.75
2022-11-06T20:51:10.851Z,4.70
2022-11-06T20:53:39.205Z,4.74
2022-11-06T20:56:07.894Z,4.80
2022-11-06T20:58:34.897Z,4.74
2022-11-06T21:01:07.193Z,4.70
2022-11-06T21:03:34.912Z,4.60
2022-11-06T21:06:01.573Z,4.40
2022-11-06T21:08:28.806Z,4.64
2022-11-06T21:11:06.338Z,4.33
2022-11-06T21:13:34.639Z,3.93
2022-11-06T21:16:04.888Z,3.85
2022-11-06T21:18:34.467Z,4.08
2022-11-06T21:21:06.653Z,4.17
2022-11-06T21:23:34.969Z,4.17
2022-11-06T21:26:15.010Z,4.24
2022-11-06T21:28:43.499Z,4.35
2022-11-06T21:31:16.677Z,4.33
2022-11-06T21:33:47.024Z,4.40
2022-11-06T21:36:22.395Z,4.41
2022-11-06T21:38:49.387Z,4.37
2022-11-06T21:41:18.661Z,4.68
2022-11-06T21:43:45.774Z,4.89
2022-11-06T21:46:13.160Z,4.91
2022-11-06T21:48:46.219Z,5.05
2022-11-06T21:51:19.928Z,4.74
2022-11-06T21:54:06.268Z,4.95
2022-11-06T21:56:33.669Z,4.97
2022-11-06T21:59:02.179Z,4.84
2022-11-06T22:01:30.552Z,4.86
2022-11-06T22:03:57.758Z,4.91
2022-11-06T22:06:26.896Z,5.15
2022-11-06T22:08:55.844Z,5.09
2022-11-06T22:11:24.337Z,5.15
2022-11-06T22:13:52.380Z,4.74
2022-11-06T22:16:22.207Z,3.91
2022-11-06T22:18:49.146Z,3.68
2022-11-06T22:21:18.999Z,4.27
2022-11-06T22:23:46.154Z,4.60
2022-11-06T22:26:19.044Z,5.02
2022-11-06T22:28:46.181Z,4.99
2022-11-06T22:31:12.875Z,5.03
2022-11-06T22:33:40.270Z,4.68
2022-11-06T22:36:12.834Z,4.04
2022-11-06T22:38:41.204Z,3.85
2022-11-06T22:41:13.185Z,3.95
2022-11-06T22:43:40.709Z,4.27
2022-11-06T22:46:16.458Z,4.24
2022-11-06T22:48:43.513Z,4.26
2022-11-06T22:51:13.750Z,4.61
2022-11-06T22:53:40.945Z,4.72
2022-11-06T22:56:08.605Z,4.91
2022-11-06T22:58:35.302Z,4.93
2022-11-06T23:01:01.980Z,4.99
2022-11-06T23:03:30.337Z,4.87
2022-11-06T23:05:59.816Z,4.73
2022-11-06T23:08:27.555Z,4.69
2022-11-06T23:10:55.693Z,4.77
2022-11-06T23:13:23.331Z,4.66
2022-11-06T23:15:50.989Z,4.56
2022-11-06T23:18:17.893Z,4.75
2022-11-06T23:20:44.569Z,4.83
2022-11-06T23:23:11.570Z,4.51
2022-11-06T23:25:38.325Z,4.51
2022-11-06T23:28:05.303Z,4.29
2022-11-06T23:30:32.006Z,4.38
2022-11-06T23:33:00.007Z,4.33
2022-11-06T23:35:32.258Z,4.55
2022-11-06T23:37:59.906Z,4.80
2022-11-06T23:40:26.417Z,4.78
2022-11-06T23:42:56.089Z,4.79
2022-11-06T23:45:41.638Z,4.99
2022-11-06T23:48:13.273Z,5.01
2022-11-06T23:50:40.483Z,5.10
2022-11-06T23:53:07.203Z,5.11
2022-11-06T23:55:33.955Z,5.03
2022-11-06T23:58:00.488Z,5.07
